Latest Weather Observations for Broome

IDW60801

Issued at 10:33 am WST Tuesday 22 September 2020 (issued every 10 minutes, with the page automatically refreshed every 10 minutes)

About weather observations | Map of weather stations | Latest weather observations for WA | Other Formats
Station Details ID: 003003 Name: BROOME AIRPORT Lat: -17.95 Lon: 122.24 Height: 7.42 m
Data from the previous 72 hours. | See also: Recent months at Broome
Date/Time
WST
Temp
°C
App
Temp
°C
Dew
Point
°C
Rel
Hum
%
Delta-T
°C
Wind Press
QNH
hPa
Press
MSL
hPa
Rain since
9am
mm
Dir  Spd
km/h
Gust
km/h
Spd
kts
Gust
kts
22/10:00am 32.0 25.3 1.7 14 15.1 SE 26 35 14 19 1013.3 1013.2 0.0
22/09:30am 30.3 25.1 5.3 20 13.1 SE 22 32 12 17 1013.5 1013.4 0.0
22/09:00am 29.3 24.8 5.9 22 12.3 SE 19 26 10 14 1013.7 1013.6 0.0
22/08:30am 26.9 22.3 5.6 25 11.0 ESE 19 24 10 13 1013.9 1013.8 0.0
22/08:00am 25.7 21.0 3.0 23 11.1 SE 17 24 9 13 1013.8 1013.7 0.0
22/07:30am 25.1 20.4 3.2 24 10.7 ESE 17 22 9 12 1013.7 1013.6 0.0
22/07:00am 25.1 20.7 0.6 20 11.4 ESE 13 19 7 10 1013.4 1013.3 0.0
22/06:30am 23.5 20.1 1.8 24 10.2 ESE 9 13 5 7 1013.3 1013.2 0.0
22/06:00am 20.7 17.9 5.3 36 7.6 ESE 9 11 5 6 1013.0 1012.9 0.0
22/05:30am 19.0 18.1 12.6 66 3.6 E 9 11 5 6 1012.6 1012.5 0.0
22/05:00am 20.1 19.6 12.7 62 4.2 ENE 7 9 4 5 1011.8 1011.7 0.0
22/04:30am 22.2 19.9 9.1 43 7.0 E 11 17 6 9 1011.4 1011.3 0.0
22/04:00am 26.0 21.2 2.6 22 11.4 SE 17 24 9 13 1010.9 1010.8 0.0
22/03:30am 26.0 22.1 3.6 23 11.1 SE 13 20 7 11 1010.8 1010.7 0.0
22/03:00am 26.2 22.0 1.5 20 11.8 SSE 13 19 7 10 1010.8 1010.7 0.0
22/02:30am 23.8 21.6 7.9 36 8.4 ESE 9 15 5 8 1010.8 1010.7 0.0
22/02:00am 24.5 22.1 6.8 32 9.2 SE 9 13 5 7 1010.8 1010.7 0.0
22/01:30am 23.8 21.5 7.4 35 8.6 ESE 9 15 5 8 1010.8 1010.7 0.0
22/01:00am 25.1 21.5 4.9 27 10.2 ESE 13 17 7 9 1011.0 1010.9 0.0
22/12:30am 26.8 21.7 3.1 21 11.7 SE 19 24 10 13 1011.1 1011.0 0.0
22/12:00am 27.4 22.1 2.9 20 12.1 SE 20 30 11 16 1011.2 1011.1 0.0
 
Date/Time
WST
Temp
°C
App
Temp
°C
Dew
Point
°C
Rel
Hum
%
Delta-T
°C
Wind Press
QNH
hPa
Press
MSL
hPa
Rain since
9am
mm
Dir  Spd
km/h
Gust
km/h
Spd
kts
Gust
kts
21/11:30pm 27.8 23.2 3.7 21 12.1 SE 17 24 9 13 1011.4 1011.3 0.0
21/11:00pm 28.0 23.5 4.1 21 12.1 SSE 17 26 9 14 1011.4 1011.3 0.0
21/10:30pm 28.4 24.1 5.2 23 12.0 SSE 17 28 9 15 1011.5 1011.4 0.0
21/10:00pm 28.3 24.5 7.5 27 11.2 SE 17 26 9 14 1011.6 1011.5 0.0
21/09:30pm 28.7 25.0 6.4 24 11.8 SE 15 24 8 13 1011.5 1011.4 0.0
21/09:00pm 29.1 25.8 9.4 29 11.0 SSE 17 24 9 13 1011.6 1011.5 0.0
21/08:30pm 29.5 27.3 13.4 37 9.6 SSE 17 22 9 12 1011.4 1011.3 0.0
21/08:00pm 28.9 29.8 18.5 53 6.7 SSW 11 17 6 9 1011.1 1011.0 0.0
21/07:30pm 29.0 29.3 16.9 48 7.6 SW 11 15 6 8 1011.0 1010.9 0.0
21/07:00pm 29.3 27.9 15.5 43 8.5 SW 17 20 9 11 1010.6 1010.5 0.0
21/06:30pm 29.8 27.4 12.5 34 10.2 WSW 17 20 9 11 1010.3 1010.2 0.0
21/06:00pm 29.6 27.9 14.8 40 9.0 WSW 17 22 9 12 1009.9 1009.8 0.0
21/05:30pm 30.8 28.1 12.8 33 10.7 WSW 19 24 10 13 1009.7 1009.6 0.0
21/05:00pm 32.2 28.2 9.2 24 13.0 SW 20 24 11 13 1009.4 1009.3 0.0
21/04:30pm 33.8 30.4 9.2 22 14.0 SW 17 22 9 12 1009.3 1009.2 0.0
21/04:00pm 34.8 31.1 6.5 17 15.5 SW 15 20 8 11 1009.1 1009.0 0.0
21/03:30pm 35.5 31.3 1.4 11 17.3 S 13 19 7 10 1009.1 1009.0 0.0
21/03:00pm 35.3 30.6 0.9 11 17.3 SSW 15 20 8 11 1009.2 1009.1 0.0
21/02:30pm 35.1 30.3 0.3 11 17.3 S 15 20 8 11 1009.5 1009.4 0.0
21/02:00pm 35.2 30.1 0.6 11 17.3 S 17 24 9 13 1009.7 1009.6 0.0
21/01:30pm 34.3 28.9 -1.0 10 17.1 S 17 26 9 14 1010.2 1010.1 0.0
21/01:00pm 35.0 29.7 -0.9 10 17.5 S 17 24 9 13 1010.5 1010.4 0.0
21/12:30pm 33.8 28.1 -1.0 11 16.8 S 19 26 10 14 1011.0 1010.9 0.0
21/12:00pm 33.5 28.1 1.3 13 16.1 SSE 19 26 10 14 1011.5 1011.4 0.0
21/11:30am 32.6 27.6 1.5 14 15.5 SSE 17 24 9 13 1011.9 1011.8 0.0
21/11:00am 32.5 28.0 4.0 16 14.8 SE 17 22 9 12 1012.3 1012.2 0.0
21/10:30am 31.6 26.7 4.2 17 14.2 SSE 19 24 10 13 1012.8 1012.7 0.0
21/10:00am 31.3 26.6 6.0 20 13.5 SE 20 28 11 15 1013.1 1013.0 0.0
21/09:30am 30.4 25.5 4.1 19 13.5 SE 19 26 10 14 1013.4 1013.3 0.0
21/09:00am 29.5 25.1 7.2 24 12.0 SE 20 30 11 16 1013.6 1013.5 0.0
21/08:30am 27.8 24.9 12.8 39 8.8 SE 20 28 11 15 1013.7 1013.6 0.0
21/08:00am 26.6 24.5 15.2 49 6.9 SE 20 30 11 16 1013.7 1013.6 0.0
21/07:30am 26.2 24.6 16.1 53 6.2 SSE 19 24 10 13 1013.3 1013.2 0.0
21/07:00am 26.2 24.5 16.3 54 6.1 S 20 30 11 16 1013.1 1013.0 0.0
21/06:30am 26.3 25.0 19.0 64 4.7 SSW 24 32 13 17 1012.7 1012.6 0.0
21/06:00am 26.2 25.8 19.0 64 4.6 SSW 19 28 10 15 1012.3 1012.2 0.0
21/05:30am 26.3 26.3 19.0 64 4.7 SSW 17 24 9 13 1012.0 1011.9 0.0
21/05:00am 26.5 26.1 18.1 60 5.3 SSW 17 26 9 14 1011.7 1011.6 0.0
21/04:30am 26.6 26.8 18.6 61 5.1 SW 15 24 8 13 1011.4 1011.3 0.0
21/04:00am 26.5 27.1 19.4 65 4.6 SW 15 20 8 11 1011.0 1010.9 0.0
21/03:30am 26.4 27.3 20.8 71 3.7 SW 17 24 9 13 1010.9 1010.8 0.0
21/03:00am 26.0 28.2 21.8 77 2.8 SW 13 19 7 10 1010.9 1010.8 0.0
21/02:30am 25.9 28.5 22.6 82 2.2 SW 13 19 7 10 1010.9 1010.8 0.0
21/02:00am 25.9 28.3 23.0 84 2.0 WSW 15 19 8 10 1010.9 1010.8 0.0
21/01:30am 26.2 28.1 22.8 81 2.3 WSW 17 22 9 12 1011.1 1011.0 0.0
21/01:00am 26.2 28.7 23.1 83 2.1 WSW 15 20 8 11 1011.3 1011.2 0.0
21/12:30am 26.4 28.8 22.9 81 2.4 W 15 22 8 12 1011.3 1011.2 0.0
21/12:00am 26.3 28.7 22.9 81 2.3 WNW 15 19 8 10 1011.5 1011.4 0.0
 
Date/Time
WST
Temp
°C
App
Temp
°C
Dew
Point
°C
Rel
Hum
%
Delta-T
°C
Wind Press
QNH
hPa
Press
MSL
hPa
Rain since
9am
mm
Dir  Spd
km/h
Gust
km/h
Spd
kts
Gust
kts
20/11:30pm 26.3 28.6 22.8 81 2.4 WNW 15 20 8 11 1011.6 1011.5 0.0
20/11:00pm 26.2 28.4 23.3 84 2.0 WNW 17 24 9 13 1011.6 1011.5 0.0
20/10:30pm 26.2 28.4 23.3 84 2.0 WNW 17 22 9 12 1011.9 1011.8 0.0
20/10:00pm 26.0 28.4 23.7 87 1.6 WNW 17 24 9 13 1012.2 1012.1 0.0
20/09:30pm 26.1 28.5 23.6 86 1.7 WNW 17 20 9 11 1012.3 1012.2 0.0
20/09:00pm 26.1 28.5 23.6 86 1.7 WNW 17 20 9 11 1012.3 1012.2 0.0
20/08:30pm 26.2 28.5 23.4 84 1.9 WNW 17 22 9 12 1012.2 1012.1 0.0
20/08:00pm 26.3 28.8 23.2 83 2.1 WNW 15 19 8 10 1012.0 1011.9 0.0
20/07:30pm 26.4 28.8 23.0 81 2.3 WNW 15 20 8 11 1011.5 1011.4 0.0
20/07:00pm 26.7 29.0 22.7 79 2.7 WNW 15 20 8 11 1011.3 1011.2 0.0
20/06:30pm 26.9 28.6 22.3 76 3.1 WNW 17 22 9 12 1011.1 1011.0 0.0
20/06:00pm 27.1 28.8 22.4 75 3.2 W 17 26 9 14 1010.9 1010.8 0.0
20/05:30pm 27.6 28.7 22.3 73 3.6 W 20 28 11 15 1010.6 1010.5 0.0
20/05:00pm 28.1 29.1 22.2 70 4.0 WNW 20 28 11 15 1010.5 1010.4 0.0
20/04:30pm 28.6 29.0 21.8 66 4.6 WNW 22 30 12 16 1010.4 1010.3 0.0
20/04:00pm 28.7 28.3 21.7 66 4.7 WNW 26 32 14 17 1010.2 1010.1 0.0
20/03:30pm 29.5 29.4 21.4 61 5.4 W 24 33 13 18 1009.9 1009.8 0.0
20/03:00pm 30.1 29.2 21.5 60 5.8 W 28 35 15 19 1009.8 1009.7 0.0
20/02:30pm 29.9 29.3 20.6 57 6.2 W 24 35 13 19 1010.0 1009.9 0.0
20/02:00pm 30.1 29.1 19.6 53 6.9 W 24 32 13 17 1010.1 1010.0 0.0
20/01:30pm 30.2 29.1 19.5 52 7.0 W 24 30 13 16 1010.5 1010.4 0.0
20/01:00pm 30.6 29.1 17.8 46 8.2 W 22 30 12 16 1010.7 1010.6 0.0
20/12:30pm 31.0 30.1 18.1 46 8.3 W 20 28 11 15 1011.1 1011.0 0.0
20/12:00pm 30.6 30.2 19.4 51 7.3 W 20 28 11 15 1011.6 1011.5 0.0
20/11:30am 30.5 30.5 20.2 54 6.8 W 20 28 11 15 1012.1 1012.0 0.0
20/11:00am 30.8 30.3 19.1 49 7.6 W 20 28 11 15 1012.4 1012.3 0.0
20/10:30am 31.4 29.8 16.0 39 9.6 SW 19 30 10 16 1012.7 1012.6 0.0
20/10:00am 29.8 28.9 16.9 45 8.1 SW 17 24 9 13 1013.2 1013.1 0.0
20/09:30am 28.6 30.5 21.4 65 4.8 S 13 19 7 10 1013.4 1013.3 0.0
20/09:00am 27.5 30.1 22.6 74 3.3 S 13 17 7 9 1013.5 1013.4 0.0
20/08:30am 27.5 31.2 23.3 78 2.9 S 9 13 5 7 1013.3 1013.2 0.0
20/08:00am 26.7 30.4 23.3 81 2.3 S 9 15 5 8 1013.3 1013.2 0.0
20/07:30am 25.9 29.3 23.4 86 1.7 SSE 11 17 6 9 1013.1 1013.0 0.0
20/07:00am 25.2 29.5 23.6 91 1.1 S 7 11 4 6 1012.9 1012.8 0.0
20/06:30am 24.5 28.1 22.1 86 1.6 SSW 6 7 3 4 1012.5 1012.4 0.0
20/06:00am 24.0 27.4 21.6 86 1.6 SSW 6 9 3 5 1012.2 1012.1 0.0
20/05:30am 22.4 26.7 21.2 93 0.8 CALM 0 0 0 0 1011.9 1011.8 0.0
20/05:00am 22.1 26.3 20.9 93 0.8 CALM 0 0 0 0 1011.6 1011.5 0.0
20/04:30am 23.9 27.4 21.8 88 1.4 SW 6 9 3 5 1011.2 1011.1 0.0
20/04:00am 22.5 26.1 21.3 93 0.8 WSW 4 7 2 4 1011.2 1011.1 0.0
20/03:30am 23.2 27.2 21.4 90 1.2 WSW 2 6 1 3 1011.2 1011.1 0.0
20/03:00am 24.5 27.8 21.9 85 1.7 WSW 7 11 4 6 1011.3 1011.2 0.0
20/02:30am 24.7 27.8 22.2 86 1.7 WSW 9 11 5 6 1011.2 1011.1 0.0
20/02:00am 24.6 27.7 22.2 86 1.6 WSW 9 11 5 6 1011.4 1011.3 0.0
20/01:30am 24.7 28.3 22.3 86 1.6 WSW 7 9 4 5 1011.7 1011.6 0.0
20/01:00am 24.9 28.6 22.5 86 1.6 WSW 7 9 4 5 1011.9 1011.8 0.0
20/12:30am 25.1 28.4 22.6 86 1.7 WSW 9 11 5 6 1012.1 1012.0 0.0
20/12:00am 25.4 28.4 22.6 84 1.9 WSW 11 13 6 7 1012.4 1012.3 0.0
 
Date/Time
WST
Temp
°C
App
Temp
°C
Dew
Point
°C
Rel
Hum
%
Delta-T
°C
Wind Press
QNH
hPa
Press
MSL
hPa
Rain since
9am
mm
Dir  Spd
km/h
Gust
km/h
Spd
kts
Gust
kts
19/11:30pm 25.6 28.9 22.6 83 2.0 WSW 9 13 5 7 1012.7 1012.6 0.0
19/11:00pm 25.7 28.3 22.6 83 2.1 WSW 13 15 7 8 1013.0 1012.9 0.0
19/10:30pm 25.9 28.8 22.5 81 2.3 W 11 17 6 9 1013.0 1012.9 0.0
19/10:00pm 26.0 28.5 22.4 80 2.4 W 13 17 7 9 1013.2 1013.1 0.0
19/09:30pm 26.0 28.6 22.7 82 2.2 W 13 17 7 9 1013.1 1013.0 0.0
19/09:00pm 26.1 28.6 22.5 80 2.4 W 13 20 7 11 1012.8 1012.7 0.0
19/08:30pm 26.3 28.3 22.3 78 2.7 W 15 20 8 11 1012.6 1012.5 0.0
19/08:00pm 26.3 28.2 22.1 77 2.8 W 15 20 8 11 1012.5 1012.4 0.0
19/07:30pm 26.4 28.0 22.1 77 2.9 W 17 24 9 13 1012.2 1012.1 0.0
19/07:00pm 26.3 27.9 22.1 77 2.8 WNW 17 22 9 12 1012.0 1011.9 0.0
19/06:30pm 26.6 27.8 21.5 73 3.4 W 17 24 9 13 1011.6 1011.5 0.0
19/06:00pm 26.8 27.7 21.5 72 3.5 W 19 26 10 14 1011.3 1011.2 0.0
19/05:30pm 27.1 27.8 21.6 72 3.7 W 20 28 11 15 1011.3 1011.2 0.0
19/05:00pm 27.7 27.9 21.4 68 4.2 WNW 22 32 12 17 1011.0 1010.9 0.0
19/04:30pm 27.8 28.0 21.3 67 4.3 WNW 22 28 12 15 1010.8 1010.7 0.0
19/04:00pm 28.6 29.2 21.3 64 4.9 W 20 30 11 16 1010.7 1010.6 0.0
19/03:30pm 28.7 28.7 20.9 62 5.2 W 22 28 12 15 1010.6 1010.5 0.0
19/03:00pm 28.9 28.9 20.9 62 5.3 W 22 33 12 18 1010.7 1010.6 0.0
19/02:30pm 29.0 28.6 20.9 61 5.4 W 24 30 13 16 1010.9 1010.8 0.0
19/02:00pm 29.5 29.3 20.6 58 5.9 W 22 32 12 17 1011.0 1010.9 0.0
19/01:30pm 29.3 29.2 20.7 59 5.7 W 22 30 12 16 1011.6 1011.5 0.0
19/01:00pm 29.4 29.7 20.8 60 5.7 WNW 20 28 11 15 1012.1 1012.0 0.0
19/12:30pm 29.0 29.6 21.4 63 5.1 W 20 28 11 15 1012.2 1012.1 0.0
19/12:00pm 29.0 29.3 20.4 59 5.7 WNW 19 26 10 14 1012.6 1012.5 0.0
19/11:30am 29.3 29.5 20.2 58 6.0 W 19 26 10 14 1012.9 1012.8 0.0
19/11:00am 29.2 30.0 20.6 59 5.7 W 17 24 9 13 1013.4 1013.3 0.0

Other formats

Comma delimited format used in spreadsheet applications
http://www.bom.gov.au/fwo/IDW60801/IDW60801.94203.axf

JavaScript Object Notation format (JSON) in row-major order
http://www.bom.gov.au/fwo/IDW60801/IDW60801.94203.json

Data quality

Most of these data are generated automatically and are frequently updated. Quality checks on data are not normally performed. It is possible for incorrect values to appear. Refer to information at About Latest Weather Observations and please check the disclaimer before using these data.